sensor_id;sensor_type;location;lat;lon;timestamp;P1;durP1;ratioP1;P2;durP2;ratioP2
65315;SDS011;51920;53.952;10.292;2024-03-29T00:01:12;7.10;;;4.10;;
65315;SDS011;51920;53.952;10.292;2024-03-29T00:03:38;7.60;;;4.28;;
65315;SDS011;51920;53.952;10.292;2024-03-29T00:06:04;7.65;;;4.43;;
65315;SDS011;51920;53.952;10.292;2024-03-29T00:08:30;6.03;;;3.97;;
65315;SDS011;51920;53.952;10.292;2024-03-29T00:10:56;5.97;;;4.13;;
65315;SDS011;51920;53.952;10.292;2024-03-29T00:13:21;4.75;;;3.70;;
65315;SDS011;51920;53.952;10.292;2024-03-29T00:15:47;5.40;;;3.70;;
65315;SDS011;51920;53.952;10.292;2024-03-29T00:18:13;5.90;;;3.78;;
65315;SDS011;51920;53.952;10.292;2024-03-29T00:20:39;6.40;;;3.80;;
65315;SDS011;51920;53.952;10.292;2024-03-29T00:23:04;6.35;;;3.78;;
65315;SDS011;51920;53.952;10.292;2024-03-29T00:25:30;6.57;;;3.67;;
65315;SDS011;51920;53.952;10.292;2024-03-29T00:27:56;5.38;;;3.80;;
65315;SDS011;51920;53.952;10.292;2024-03-29T00:30:22;5.70;;;3.95;;
65315;SDS011;51920;53.952;10.292;2024-03-29T00:32:48;4.97;;;3.47;;
65315;SDS011;51920;53.952;10.292;2024-03-29T00:35:15;6.28;;;3.42;;
65315;SDS011;51920;53.952;10.292;2024-03-29T00:37:40;4.50;;;3.30;;
65315;SDS011;51920;53.952;10.292;2024-03-29T00:40:06;5.40;;;3.57;;
65315;SDS011;51920;53.952;10.292;2024-03-29T00:42:32;6.07;;;3.70;;
65315;SDS011;51920;53.952;10.292;2024-03-29T00:44:58;4.63;;;3.13;;
65315;SDS011;51920;53.952;10.292;2024-03-29T00:47:24;6.10;;;3.37;;
65315;SDS011;51920;53.952;10.292;2024-03-29T00:49:51;5.88;;;3.00;;
65315;SDS011;51920;53.952;10.292;2024-03-29T00:52:17;7.10;;;3.55;;
65315;SDS011;51920;53.952;10.292;2024-03-29T00:54:43;6.47;;;3.73;;
65315;SDS011;51920;53.952;10.292;2024-03-29T00:57:09;4.68;;;3.30;;
65315;SDS011;51920;53.952;10.292;2024-03-29T00:59:38;5.05;;;2.97;;
65315;SDS011;51920;53.952;10.292;2024-03-29T01:02:04;4.18;;;3.33;;
65315;SDS011;51920;53.952;10.292;2024-03-29T01:04:30;5.27;;;3.00;;
65315;SDS011;51920;53.952;10.292;2024-03-29T01:06:56;6.25;;;3.25;;
65315;SDS011;51920;53.952;10.292;2024-03-29T01:09:22;3.80;;;2.92;;
65315;SDS011;51920;53.952;10.292;2024-03-29T01:11:49;5.73;;;2.97;;
65315;SDS011;51920;53.952;10.292;2024-03-29T01:14:16;5.45;;;3.30;;
65315;SDS011;51920;53.952;10.292;2024-03-29T01:16:43;5.97;;;3.33;;
65315;SDS011;51920;53.952;10.292;2024-03-29T01:19:09;3.80;;;3.00;;
65315;SDS011;51920;53.952;10.292;2024-03-29T01:21:36;4.90;;;3.30;;
65315;SDS011;51920;53.952;10.292;2024-03-29T01:24:02;4.22;;;2.65;;
65315;SDS011;51920;53.952;10.292;2024-03-29T01:26:30;5.85;;;3.30;;
65315;SDS011;51920;53.952;10.292;2024-03-29T01:28:56;4.65;;;2.60;;
65315;SDS011;51920;53.952;10.292;2024-03-29T01:31:23;4.90;;;3.13;;
65315;SDS011;51920;53.952;10.292;2024-03-29T01:33:49;4.73;;;2.70;;
65315;SDS011;51920;53.952;10.292;2024-03-29T01:36:15;4.55;;;2.60;;
65315;SDS011;51920;53.952;10.292;2024-03-29T01:38:41;4.05;;;2.70;;
65315;SDS011;51920;53.952;10.292;2024-03-29T01:41:07;4.28;;;2.67;;
65315;SDS011;51920;53.952;10.292;2024-03-29T01:43:33;5.40;;;2.57;;
65315;SDS011;51920;53.952;10.292;2024-03-29T01:45:59;4.78;;;2.58;;
65315;SDS011;51920;53.952;10.292;2024-03-29T01:48:26;3.63;;;2.40;;
65315;SDS011;51920;53.952;10.292;2024-03-29T01:50:53;4.90;;;2.25;;
65315;SDS011;51920;53.952;10.292;2024-03-29T01:53:21;3.80;;;2.20;;
65315;SDS011;51920;53.952;10.292;2024-03-29T01:58:26;4.93;;;2.28;;
65315;SDS011;51920;53.952;10.292;2024-03-29T02:00:52;3.28;;;2.25;;
65315;SDS011;51920;53.952;10.292;2024-03-29T02:03:20;3.28;;;2.30;;
65315;SDS011;51920;53.952;10.292;2024-03-29T02:05:47;5.63;;;2.20;;
65315;SDS011;51920;53.952;10.292;2024-03-29T02:08:15;3.38;;;2.30;;
65315;SDS011;51920;53.952;10.292;2024-03-29T02:10:41;4.18;;;2.50;;
65315;SDS011;51920;53.952;10.292;2024-03-29T02:13:08;2.80;;;2.10;;
65315;SDS011;51920;53.952;10.292;2024-03-29T02:15:34;3.10;;;2.23;;
65315;SDS011;51920;53.952;10.292;2024-03-29T02:18:00;3.97;;;2.20;;
65315;SDS011;51920;53.952;10.292;2024-03-29T02:20:26;3.80;;;2.20;;
65315;SDS011;51920;53.952;10.292;2024-03-29T02:22:57;4.70;;;2.57;;
65315;SDS011;51920;53.952;10.292;2024-03-29T02:25:39;3.35;;;2.17;;
65315;SDS011;51920;53.952;10.292;2024-03-29T02:28:05;4.03;;;2.20;;
65315;SDS011;51920;53.952;10.292;2024-03-29T02:30:31;3.70;;;2.33;;
65315;SDS011;51920;53.952;10.292;2024-03-29T02:32:58;2.70;;;2.10;;
65315;SDS011;51920;53.952;10.292;2024-03-29T02:35:24;2.30;;;2.10;;
65315;SDS011;51920;53.952;10.292;2024-03-29T02:37:51;3.15;;;2.22;;
65315;SDS011;51920;53.952;10.292;2024-03-29T02:40:17;2.30;;;2.00;;
65315;SDS011;51920;53.952;10.292;2024-03-29T02:42:44;2.25;;;2.05;;
65315;SDS011;51920;53.952;10.292;2024-03-29T02:45:09;2.67;;;2.00;;
65315;SDS011;51920;53.952;10.292;2024-03-29T02:47:35;3.40;;;2.30;;
65315;SDS011;51920;53.952;10.292;2024-03-29T02:50:01;3.17;;;2.40;;
65315;SDS011;51920;53.952;10.292;2024-03-29T02:52:27;3.90;;;2.13;;
65315;SDS011;51920;53.952;10.292;2024-03-29T02:54:54;2.80;;;2.00;;
65315;SDS011;51920;53.952;10.292;2024-03-29T02:57:21;4.82;;;2.20;;
65315;SDS011;51920;53.952;10.292;2024-03-29T02:59:47;3.65;;;2.22;;
65315;SDS011;51920;53.952;10.292;2024-03-29T03:02:13;3.37;;;1.87;;
65315;SDS011;51920;53.952;10.292;2024-03-29T03:04:39;4.10;;;2.08;;
65315;SDS011;51920;53.952;10.292;2024-03-29T03:07:04;4.00;;;2.10;;
65315;SDS011;51920;53.952;10.292;2024-03-29T03:09:49;2.97;;;2.15;;
65315;SDS011;51920;53.952;10.292;2024-03-29T03:12:33;2.88;;;2.30;;
65315;SDS011;51920;53.952;10.292;2024-03-29T03:14:59;2.87;;;1.80;;
65315;SDS011;51920;53.952;10.292;2024-03-29T03:17:28;3.03;;;2.10;;
65315;SDS011;51920;53.952;10.292;2024-03-29T03:19:54;3.35;;;1.88;;
65315;SDS011;51920;53.952;10.292;2024-03-29T03:22:20;4.75;;;2.05;;
65315;SDS011;51920;53.952;10.292;2024-03-29T03:24:46;3.03;;;1.90;;
65315;SDS011;51920;53.952;10.292;2024-03-29T03:27:11;3.67;;;2.07;;
65315;SDS011;51920;53.952;10.292;2024-03-29T03:29:38;5.18;;;2.10;;
65315;SDS011;51920;53.952;10.292;2024-03-29T03:32:05;3.13;;;2.08;;
65315;SDS011;51920;53.952;10.292;2024-03-29T03:34:31;3.40;;;1.90;;
65315;SDS011;51920;53.952;10.292;2024-03-29T03:36:58;2.65;;;1.90;;
65315;SDS011;51920;53.952;10.292;2024-03-29T03:39:24;4.53;;;1.90;;
65315;SDS011;51920;53.952;10.292;2024-03-29T03:41:50;2.33;;;1.80;;
65315;SDS011;51920;53.952;10.292;2024-03-29T03:44:16;3.30;;;2.17;;
65315;SDS011;51920;53.952;10.292;2024-03-29T03:46:42;2.40;;;1.80;;
65315;SDS011;51920;53.952;10.292;2024-03-29T03:49:08;2.75;;;2.10;;
65315;SDS011;51920;53.952;10.292;2024-03-29T03:51:34;2.88;;;1.98;;
65315;SDS011;51920;53.952;10.292;2024-03-29T03:54:00;2.83;;;1.73;;
65315;SDS011;51920;53.952;10.292;2024-03-29T03:56:26;4.43;;;2.25;;
65315;SDS011;51920;53.952;10.292;2024-03-29T03:58:52;2.17;;;1.60;;
65315;SDS011;51920;53.952;10.292;2024-03-29T04:01:17;3.53;;;1.70;;
65315;SDS011;51920;53.952;10.292;2024-03-29T04:03:43;2.45;;;1.70;;
65315;SDS011;51920;53.952;10.292;2024-03-29T04:06:09;2.57;;;1.70;;
65315;SDS011;51920;53.952;10.292;2024-03-29T04:08:35;2.47;;;1.60;;
65315;SDS011;51920;53.952;10.292;2024-03-29T04:11:04;3.70;;;1.60;;
65315;SDS011;51920;53.952;10.292;2024-03-29T04:13:30;5.07;;;2.00;;
65315;SDS011;51920;53.952;10.292;2024-03-29T04:16:03;3.05;;;2.03;;
65315;SDS011;51920;53.952;10.292;2024-03-29T04:18:30;2.22;;;1.70;;
65315;SDS011;51920;53.952;10.292;2024-03-29T04:20:59;2.22;;;1.75;;
65315;SDS011;51920;53.952;10.292;2024-03-29T04:23:26;7.93;;;1.88;;
65315;SDS011;51920;53.952;10.292;2024-03-29T04:25:53;2.83;;;1.60;;
65315;SDS011;51920;53.952;10.292;2024-03-29T04:28:19;3.22;;;1.77;;
65315;SDS011;51920;53.952;10.292;2024-03-29T04:30:55;3.05;;;1.90;;
65315;SDS011;51920;53.952;10.292;2024-03-29T04:33:25;4.57;;;2.00;;
65315;SDS011;51920;53.952;10.292;2024-03-29T04:35:52;3.43;;;1.80;;
65315;SDS011;51920;53.952;10.292;2024-03-29T04:38:18;2.22;;;1.50;;
65315;SDS011;51920;53.952;10.292;2024-03-29T04:40:44;3.20;;;1.60;;
65315;SDS011;51920;53.952;10.292;2024-03-29T04:43:10;5.00;;;1.80;;
65315;SDS011;51920;53.952;10.292;2024-03-29T04:45:36;2.92;;;1.70;;
65315;SDS011;51920;53.952;10.292;2024-03-29T04:48:02;3.05;;;1.50;;
65315;SDS011;51920;53.952;10.292;2024-03-29T04:50:28;6.63;;;1.60;;
65315;SDS011;51920;53.952;10.292;2024-03-29T04:52:54;2.92;;;1.67;;
65315;SDS011;51920;53.952;10.292;2024-03-29T04:55:19;2.05;;;1.50;;
65315;SDS011;51920;53.952;10.292;2024-03-29T04:57:45;2.87;;;1.60;;
65315;SDS011;51920;53.952;10.292;2024-03-29T05:00:11;2.80;;;1.60;;
65315;SDS011;51920;53.952;10.292;2024-03-29T05:02:37;3.92;;;1.50;;
65315;SDS011;51920;53.952;10.292;2024-03-29T05:05:03;2.67;;;1.67;;
65315;SDS011;51920;53.952;10.292;2024-03-29T05:07:30;2.38;;;1.60;;
65315;SDS011;51920;53.952;10.292;2024-03-29T05:09:56;3.70;;;1.90;;
65315;SDS011;51920;53.952;10.292;2024-03-29T05:12:23;2.58;;;1.70;;
65315;SDS011;51920;53.952;10.292;2024-03-29T05:14:49;4.10;;;1.50;;
65315;SDS011;51920;53.952;10.292;2024-03-29T05:17:15;2.80;;;1.80;;
65315;SDS011;51920;53.952;10.292;2024-03-29T05:19:42;3.67;;;1.90;;
65315;SDS011;51920;53.952;10.292;2024-03-29T05:22:08;3.35;;;1.83;;
65315;SDS011;51920;53.952;10.292;2024-03-29T05:24:34;4.80;;;1.33;;
65315;SDS011;51920;53.952;10.292;2024-03-29T05:27:00;2.60;;;1.80;;
65315;SDS011;51920;53.952;10.292;2024-03-29T05:29:26;3.53;;;1.80;;
65315;SDS011;51920;53.952;10.292;2024-03-29T05:31:52;4.32;;;1.73;;
65315;SDS011;51920;53.952;10.292;2024-03-29T05:34:17;2.38;;;1.80;;
65315;SDS011;51920;53.952;10.292;2024-03-29T05:36:43;4.70;;;1.80;;
65315;SDS011;51920;53.952;10.292;2024-03-29T05:39:11;1.98;;;1.40;;
65315;SDS011;51920;53.952;10.292;2024-03-29T05:41:36;2.97;;;1.80;;
65315;SDS011;51920;53.952;10.292;2024-03-29T05:44:03;2.47;;;1.50;;
65315;SDS011;51920;53.952;10.292;2024-03-29T05:46:29;3.08;;;1.70;;
65315;SDS011;51920;53.952;10.292;2024-03-29T05:48:55;2.97;;;1.60;;
65315;SDS011;51920;53.952;10.292;2024-03-29T05:51:20;3.53;;;1.40;;
65315;SDS011;51920;53.952;10.292;2024-03-29T05:53:46;4.03;;;1.80;;
65315;SDS011;51920;53.952;10.292;2024-03-29T05:56:13;4.10;;;1.40;;
65315;SDS011;51920;53.952;10.292;2024-03-29T05:58:38;2.00;;;1.50;;
65315;SDS011;51920;53.952;10.292;2024-03-29T06:01:04;3.20;;;1.77;;
65315;SDS011;51920;53.952;10.292;2024-03-29T06:03:30;4.37;;;1.63;;
65315;SDS011;51920;53.952;10.292;2024-03-29T06:05:56;3.08;;;1.58;;
65315;SDS011;51920;53.952;10.292;2024-03-29T06:08:21;2.78;;;1.60;;
65315;SDS011;51920;53.952;10.292;2024-03-29T06:10:49;2.07;;;1.67;;
65315;SDS011;51920;53.952;10.292;2024-03-29T06:13:15;2.97;;;1.52;;
65315;SDS011;51920;53.952;10.292;2024-03-29T06:15:55;3.20;;;1.60;;
65315;SDS011;51920;53.952;10.292;2024-03-29T06:18:39;3.13;;;1.52;;
65315;SDS011;51920;53.952;10.292;2024-03-29T06:21:05;2.73;;;1.60;;
65315;SDS011;51920;53.952;10.292;2024-03-29T06:23:31;3.97;;;2.30;;
65315;SDS011;51920;53.952;10.292;2024-03-29T06:25:57;3.07;;;1.60;;
65315;SDS011;51920;53.952;10.292;2024-03-29T06:28:22;3.38;;;1.63;;
65315;SDS011;51920;53.952;10.292;2024-03-29T06:30:48;1.83;;;1.67;;
65315;SDS011;51920;53.952;10.292;2024-03-29T06:33:14;2.92;;;1.85;;
65315;SDS011;51920;53.952;10.292;2024-03-29T06:35:40;2.53;;;1.80;;
65315;SDS011;51920;53.952;10.292;2024-03-29T06:38:06;3.30;;;2.17;;
65315;SDS011;51920;53.952;10.292;2024-03-29T06:40:32;2.92;;;2.10;;
65315;SDS011;51920;53.952;10.292;2024-03-29T06:42:58;4.03;;;2.03;;
65315;SDS011;51920;53.952;10.292;2024-03-29T06:45:25;1.77;;;1.60;;
65315;SDS011;51920;53.952;10.292;2024-03-29T06:47:51;2.67;;;1.60;;
65315;SDS011;51920;53.952;10.292;2024-03-29T06:50:17;3.97;;;1.75;;
65315;SDS011;51920;53.952;10.292;2024-03-29T06:52:43;3.88;;;1.70;;
65315;SDS011;51920;53.952;10.292;2024-03-29T06:55:09;4.67;;;1.90;;
65315;SDS011;51920;53.952;10.292;2024-03-29T06:57:35;3.97;;;1.90;;
65315;SDS011;51920;53.952;10.292;2024-03-29T07:00:02;3.13;;;1.60;;
65315;SDS011;51920;53.952;10.292;2024-03-29T07:02:28;3.07;;;1.63;;
65315;SDS011;51920;53.952;10.292;2024-03-29T07:04:54;2.97;;;1.67;;
65315;SDS011;51920;53.952;10.292;2024-03-29T07:07:20;3.17;;;1.80;;
65315;SDS011;51920;53.952;10.292;2024-03-29T07:09:46;3.63;;;1.67;;
65315;SDS011;51920;53.952;10.292;2024-03-29T07:12:11;2.22;;;1.50;;
65315;SDS011;51920;53.952;10.292;2024-03-29T07:14:38;3.10;;;1.50;;
65315;SDS011;51920;53.952;10.292;2024-03-29T07:17:03;2.65;;;1.60;;
65315;SDS011;51920;53.952;10.292;2024-03-29T07:19:30;3.22;;;1.63;;
65315;SDS011;51920;53.952;10.292;2024-03-29T07:21:56;2.28;;;1.58;;
65315;SDS011;51920;53.952;10.292;2024-03-29T07:24:22;2.83;;;1.40;;
65315;SDS011;51920;53.952;10.292;2024-03-29T07:30:23;2.60;;;1.60;;
65315;SDS011;51920;53.952;10.292;2024-03-29T07:32:48;4.13;;;2.27;;
65315;SDS011;51920;53.952;10.292;2024-03-29T07:35:14;2.88;;;1.90;;
65315;SDS011;51920;53.952;10.292;2024-03-29T07:37:42;3.67;;;2.10;;
65315;SDS011;51920;53.952;10.292;2024-03-29T07:40:13;2.95;;;2.10;;
65315;SDS011;51920;53.952;10.292;2024-03-29T07:42:39;4.67;;;1.93;;
65315;SDS011;51920;53.952;10.292;2024-03-29T07:45:05;3.05;;;1.70;;
65315;SDS011;51920;53.952;10.292;2024-03-29T07:47:31;2.63;;;1.70;;
65315;SDS011;51920;53.952;10.292;2024-03-29T07:49:57;2.83;;;1.50;;
65315;SDS011;51920;53.952;10.292;2024-03-29T07:52:23;4.75;;;1.52;;
65315;SDS011;51920;53.952;10.292;2024-03-29T07:54:50;4.55;;;1.73;;
65315;SDS011;51920;53.952;10.292;2024-03-29T07:57:16;3.13;;;1.80;;
65315;SDS011;51920;53.952;10.292;2024-03-29T07:59:43;3.97;;;1.63;;
65315;SDS011;51920;53.952;10.292;2024-03-29T08:02:09;3.90;;;1.60;;
65315;SDS011;51920;53.952;10.292;2024-03-29T08:04:34;2.60;;;1.60;;
65315;SDS011;51920;53.952;10.292;2024-03-29T08:07:00;2.35;;;1.42;;
65315;SDS011;51920;53.952;10.292;2024-03-29T08:09:26;3.07;;;1.53;;
65315;SDS011;51920;53.952;10.292;2024-03-29T08:11:52;5.13;;;1.63;;
65315;SDS011;51920;53.952;10.292;2024-03-29T08:14:18;3.53;;;1.40;;
65315;SDS011;51920;53.952;10.292;2024-03-29T08:16:44;3.60;;;1.40;;
65315;SDS011;51920;53.952;10.292;2024-03-29T08:19:10;4.07;;;1.50;;
65315;SDS011;51920;53.952;10.292;2024-03-29T08:21:36;2.40;;;1.50;;
65315;SDS011;51920;53.952;10.292;2024-03-29T08:24:02;3.13;;;1.58;;
65315;SDS011;51920;53.952;10.292;2024-03-29T08:26:29;3.77;;;1.40;;
65315;SDS011;51920;53.952;10.292;2024-03-29T08:28:56;2.67;;;1.77;;
65315;SDS011;51920;53.952;10.292;2024-03-29T08:31:22;2.80;;;1.80;;
65315;SDS011;51920;53.952;10.292;2024-03-29T08:33:48;4.63;;;1.77;;
65315;SDS011;51920;53.952;10.292;2024-03-29T08:36:15;3.63;;;1.53;;
65315;SDS011;51920;53.952;10.292;2024-03-29T08:38:41;1.88;;;1.35;;
65315;SDS011;51920;53.952;10.292;2024-03-29T08:41:09;1.83;;;1.40;;
65315;SDS011;51920;53.952;10.292;2024-03-29T08:43:35;3.88;;;1.60;;
65315;SDS011;51920;53.952;10.292;2024-03-29T08:46:01;2.43;;;1.63;;
65315;SDS011;51920;53.952;10.292;2024-03-29T08:48:27;2.42;;;1.50;;
65315;SDS011;51920;53.952;10.292;2024-03-29T08:50:53;3.10;;;1.73;;
65315;SDS011;51920;53.952;10.292;2024-03-29T08:53:19;1.88;;;1.42;;
65315;SDS011;51920;53.952;10.292;2024-03-29T08:55:47;3.60;;;1.50;;
65315;SDS011;51920;53.952;10.292;2024-03-29T08:58:15;2.40;;;1.80;;
65315;SDS011;51920;53.952;10.292;2024-03-29T09:00:43;2.83;;;1.75;;
65315;SDS011;51920;53.952;10.292;2024-03-29T09:03:09;2.88;;;1.42;;
65315;SDS011;51920;53.952;10.292;2024-03-29T09:05:35;3.60;;;1.60;;
65315;SDS011;51920;53.952;10.292;2024-03-29T09:08:01;3.50;;;1.50;;
65315;SDS011;51920;53.952;10.292;2024-03-29T09:10:27;5.63;;;1.85;;
65315;SDS011;51920;53.952;10.292;2024-03-29T09:12:53;5.23;;;2.10;;
65315;SDS011;51920;53.952;10.292;2024-03-29T09:15:19;4.05;;;2.10;;
65315;SDS011;51920;53.952;10.292;2024-03-29T09:17:48;2.58;;;1.60;;
65315;SDS011;51920;53.952;10.292;2024-03-29T09:20:14;2.17;;;1.60;;
65315;SDS011;51920;53.952;10.292;2024-03-29T09:22:40;2.28;;;1.40;;
65315;SDS011;51920;53.952;10.292;2024-03-29T09:25:06;1.67;;;1.40;;
65315;SDS011;51920;53.952;10.292;2024-03-29T09:27:34;2.05;;;1.50;;
65315;SDS011;51920;53.952;10.292;2024-03-29T09:30:02;2.33;;;1.33;;
65315;SDS011;51920;53.952;10.292;2024-03-29T09:32:31;2.53;;;1.45;;
65315;SDS011;51920;53.952;10.292;2024-03-29T09:34:57;3.75;;;1.50;;
65315;SDS011;51920;53.952;10.292;2024-03-29T09:37:23;4.20;;;1.55;;
65315;SDS011;51920;53.952;10.292;2024-03-29T09:39:49;3.17;;;1.77;;
65315;SDS011;51920;53.952;10.292;2024-03-29T09:42:15;1.70;;;1.47;;
65315;SDS011;51920;53.952;10.292;2024-03-29T09:44:43;3.55;;;1.80;;
65315;SDS011;51920;53.952;10.292;2024-03-29T09:47:11;3.83;;;1.83;;
65315;SDS011;51920;53.952;10.292;2024-03-29T09:49:40;2.40;;;1.80;;
65315;SDS011;51920;53.952;10.292;2024-03-29T09:52:10;2.15;;;1.50;;
65315;SDS011;51920;53.952;10.292;2024-03-29T09:54:37;2.47;;;1.30;;
65315;SDS011;51920;53.952;10.292;2024-03-29T09:57:03;2.60;;;1.50;;
65315;SDS011;51920;53.952;10.292;2024-03-29T09:59:30;2.70;;;1.58;;
65315;SDS011;51920;53.952;10.292;2024-03-29T10:01:56;2.83;;;1.70;;
65315;SDS011;51920;53.952;10.292;2024-03-29T10:04:24;1.30;;;1.10;;
65315;SDS011;51920;53.952;10.292;2024-03-29T10:06:51;2.60;;;1.30;;
65315;SDS011;51920;53.952;10.292;2024-03-29T10:09:17;1.98;;;1.77;;
65315;SDS011;51920;53.952;10.292;2024-03-29T10:11:44;2.10;;;1.30;;
65315;SDS011;51920;53.952;10.292;2024-03-29T10:14:10;1.80;;;1.33;;
65315;SDS011;51920;53.952;10.292;2024-03-29T10:16:36;2.13;;;1.00;;
65315;SDS011;51920;53.952;10.292;2024-03-29T10:19:03;1.83;;;1.10;;
65315;SDS011;51920;53.952;10.292;2024-03-29T10:21:29;1.50;;;1.40;;
65315;SDS011;51920;53.952;10.292;2024-03-29T10:23:55;1.80;;;1.40;;
65315;SDS011;51920;53.952;10.292;2024-03-29T10:26:21;2.77;;;1.73;;
65315;SDS011;51920;53.952;10.292;2024-03-29T10:28:47;2.33;;;1.55;;
65315;SDS011;51920;53.952;10.292;2024-03-29T10:31:14;1.45;;;1.27;;
65315;SDS011;51920;53.952;10.292;2024-03-29T10:33:42;3.90;;;1.97;;
65315;SDS011;51920;53.952;10.292;2024-03-29T10:36:09;3.08;;;1.80;;
65315;SDS011;51920;53.952;10.292;2024-03-29T10:38:37;4.82;;;2.35;;
65315;SDS011;51920;53.952;10.292;2024-03-29T10:41:04;2.72;;;1.70;;
65315;SDS011;51920;53.952;10.292;2024-03-29T10:43:32;3.63;;;1.98;;
65315;SDS011;51920;53.952;10.292;2024-03-29T10:46:02;3.77;;;1.30;;
65315;SDS011;51920;53.952;10.292;2024-03-29T10:48:29;1.85;;;1.30;;
65315;SDS011;51920;53.952;10.292;2024-03-29T10:50:57;2.78;;;1.55;;
65315;SDS011;51920;53.952;10.292;2024-03-29T10:53:24;1.70;;;1.50;;
65315;SDS011;51920;53.952;10.292;2024-03-29T10:55:55;3.55;;;2.00;;
65315;SDS011;51920;53.952;10.292;2024-03-29T10:58:29;1.97;;;1.40;;
65315;SDS011;51920;53.952;10.292;2024-03-29T11:00:59;2.50;;;1.70;;
65315;SDS011;51920;53.952;10.292;2024-03-29T11:03:40;1.98;;;1.40;;
65315;SDS011;51920;53.952;10.292;2024-03-29T11:06:11;1.80;;;1.45;;
65315;SDS011;51920;53.952;10.292;2024-03-29T11:08:40;2.05;;;1.40;;
65315;SDS011;51920;53.952;10.292;2024-03-29T11:11:11;2.67;;;1.40;;
65315;SDS011;51920;53.952;10.292;2024-03-29T11:13:49;2.90;;;1.50;;
65315;SDS011;51920;53.952;10.292;2024-03-29T11:16:19;2.15;;;1.60;;
65315;SDS011;51920;53.952;10.292;2024-03-29T11:18:46;2.22;;;1.73;;
65315;SDS011;51920;53.952;10.292;2024-03-29T11:21:13;3.28;;;1.63;;
65315;SDS011;51920;53.952;10.292;2024-03-29T11:23:50;2.13;;;1.60;;
65315;SDS011;51920;53.952;10.292;2024-03-29T11:26:18;3.83;;;1.50;;
65315;SDS011;51920;53.952;10.292;2024-03-29T11:28:51;2.97;;;1.70;;
65315;SDS011;51920;53.952;10.292;2024-03-29T11:31:18;2.45;;;1.60;;
65315;SDS011;51920;53.952;10.292;2024-03-29T11:33:48;2.40;;;1.73;;
65315;SDS011;51920;53.952;10.292;2024-03-29T11:36:19;3.20;;;1.83;;
65315;SDS011;51920;53.952;10.292;2024-03-29T11:38:53;3.63;;;1.95;;
65315;SDS011;51920;53.952;10.292;2024-03-29T11:41:20;3.38;;;2.17;;
65315;SDS011;51920;53.952;10.292;2024-03-29T11:43:50;3.42;;;1.77;;
65315;SDS011;51920;53.952;10.292;2024-03-29T11:46:17;2.95;;;1.92;;
65315;SDS011;51920;53.952;10.292;2024-03-29T11:48:44;3.47;;;1.70;;
65315;SDS011;51920;53.952;10.292;2024-03-29T11:51:13;2.88;;;1.60;;
65315;SDS011;51920;53.952;10.292;2024-03-29T11:53:40;1.98;;;1.63;;
65315;SDS011;51920;53.952;10.292;2024-03-29T11:56:12;3.40;;;2.15;;
65315;SDS011;51920;53.952;10.292;2024-03-29T11:58:39;2.35;;;1.73;;
65315;SDS011;51920;53.952;10.292;2024-03-29T12:01:06;2.33;;;1.80;;
65315;SDS011;51920;53.952;10.292;2024-03-29T12:03:37;4.82;;;2.00;;
65315;SDS011;51920;53.952;10.292;2024-03-29T12:06:04;3.42;;;2.28;;
65315;SDS011;51920;53.952;10.292;2024-03-29T12:08:33;5.57;;;2.85;;
65315;SDS011;51920;53.952;10.292;2024-03-29T12:11:01;4.22;;;2.92;;
65315;SDS011;51920;53.952;10.292;2024-03-29T12:13:28;4.50;;;2.97;;
65315;SDS011;51920;53.952;10.292;2024-03-29T12:15:55;5.35;;;3.40;;
65315;SDS011;51920;53.952;10.292;2024-03-29T12:18:22;5.68;;;3.40;;
65315;SDS011;51920;53.952;10.292;2024-03-29T12:20:49;7.18;;;3.30;;
65315;SDS011;51920;53.952;10.292;2024-03-29T12:23:17;5.25;;;3.58;;
65315;SDS011;51920;53.952;10.292;2024-03-29T12:25:44;3.50;;;2.23;;
65315;SDS011;51920;53.952;10.292;2024-03-29T12:28:11;3.45;;;2.22;;
65315;SDS011;51920;53.952;10.292;2024-03-29T12:30:45;4.15;;;2.55;;
65315;SDS011;51920;53.952;10.292;2024-03-29T12:33:13;3.45;;;2.30;;
65315;SDS011;51920;53.952;10.292;2024-03-29T12:35:51;4.85;;;2.80;;
65315;SDS011;51920;53.952;10.292;2024-03-29T12:38:19;3.00;;;2.17;;
65315;SDS011;51920;53.952;10.292;2024-03-29T12:40:48;4.05;;;2.05;;
65315;SDS011;51920;53.952;10.292;2024-03-29T12:43:15;4.35;;;2.28;;
65315;SDS011;51920;53.952;10.292;2024-03-29T12:45:46;4.10;;;2.10;;
65315;SDS011;51920;53.952;10.292;2024-03-29T12:48:21;4.03;;;2.10;;
65315;SDS011;51920;53.952;10.292;2024-03-29T12:50:50;2.23;;;1.80;;
65315;SDS011;51920;53.952;10.292;2024-03-29T12:53:17;2.55;;;1.67;;
65315;SDS011;51920;53.952;10.292;2024-03-29T12:55:44;2.83;;;1.92;;
65315;SDS011;51920;53.952;10.292;2024-03-29T12:58:11;2.85;;;1.60;;
65315;SDS011;51920;53.952;10.292;2024-03-29T13:00:38;3.30;;;1.75;;
65315;SDS011;51920;53.952;10.292;2024-03-29T13:03:05;4.00;;;2.00;;
65315;SDS011;51920;53.952;10.292;2024-03-29T13:05:31;3.63;;;2.20;;
65315;SDS011;51920;53.952;10.292;2024-03-29T13:08:05;3.00;;;2.05;;
65315;SDS011;51920;53.952;10.292;2024-03-29T13:10:32;2.75;;;1.90;;
65315;SDS011;51920;53.952;10.292;2024-03-29T13:12:58;3.45;;;1.90;;
65315;SDS011;51920;53.952;10.292;2024-03-29T13:15:25;2.77;;;2.10;;
65315;SDS011;51920;53.952;10.292;2024-03-29T13:17:53;4.35;;;2.20;;
65315;SDS011;51920;53.952;10.292;2024-03-29T13:20:20;3.42;;;2.30;;
65315;SDS011;51920;53.952;10.292;2024-03-29T13:22:46;3.85;;;2.40;;
65315;SDS011;51920;53.952;10.292;2024-03-29T13:25:15;3.28;;;2.50;;
65315;SDS011;51920;53.952;10.292;2024-03-29T13:27:42;4.57;;;2.20;;
65315;SDS011;51920;53.952;10.292;2024-03-29T13:30:10;3.22;;;2.15;;
65315;SDS011;51920;53.952;10.292;2024-03-29T13:32:40;3.03;;;2.17;;
65315;SDS011;51920;53.952;10.292;2024-03-29T13:35:07;3.08;;;2.20;;
65315;SDS011;51920;53.952;10.292;2024-03-29T13:37:40;3.50;;;2.20;;
65315;SDS011;51920;53.952;10.292;2024-03-29T13:40:12;5.50;;;2.13;;
65315;SDS011;51920;53.952;10.292;2024-03-29T13:42:38;3.45;;;2.22;;
65315;SDS011;51920;53.952;10.292;2024-03-29T13:45:05;2.92;;;2.05;;
65315;SDS011;51920;53.952;10.292;2024-03-29T13:47:38;4.85;;;2.35;;
65315;SDS011;51920;53.952;10.292;2024-03-29T13:50:05;2.88;;;2.50;;
65315;SDS011;51920;53.952;10.292;2024-03-29T13:52:32;2.73;;;2.23;;
65315;SDS011;51920;53.952;10.292;2024-03-29T13:55:02;3.78;;;2.30;;
65315;SDS011;51920;53.952;10.292;2024-03-29T13:57:29;4.35;;;2.40;;
65315;SDS011;51920;53.952;10.292;2024-03-29T13:59:56;4.13;;;2.00;;
65315;SDS011;51920;53.952;10.292;2024-03-29T14:02:24;3.75;;;2.20;;
65315;SDS011;51920;53.952;10.292;2024-03-29T14:04:51;3.37;;;2.00;;
65315;SDS011;51920;53.952;10.292;2024-03-29T14:07:17;2.65;;;2.10;;
65315;SDS011;51920;53.952;10.292;2024-03-29T14:09:44;3.17;;;2.55;;
65315;SDS011;51920;53.952;10.292;2024-03-29T14:12:11;3.92;;;2.30;;
65315;SDS011;51920;53.952;10.292;2024-03-29T14:14:37;3.67;;;2.00;;
65315;SDS011;51920;53.952;10.292;2024-03-29T14:17:03;2.45;;;2.05;;
65315;SDS011;51920;53.952;10.292;2024-03-29T14:19:30;4.43;;;2.00;;
65315;SDS011;51920;53.952;10.292;2024-03-29T14:21:58;2.15;;;1.95;;
65315;SDS011;51920;53.952;10.292;2024-03-29T14:24:24;2.63;;;2.00;;
65315;SDS011;51920;53.952;10.292;2024-03-29T14:26:50;4.00;;;2.13;;
65315;SDS011;51920;53.952;10.292;2024-03-29T14:29:17;2.50;;;2.00;;
65315;SDS011;51920;53.952;10.292;2024-03-29T14:31:49;2.65;;;1.95;;
65315;SDS011;51920;53.952;10.292;2024-03-29T14:34:16;3.40;;;2.17;;
65315;SDS011;51920;53.952;10.292;2024-03-29T14:36:43;3.50;;;2.03;;
65315;SDS011;51920;53.952;10.292;2024-03-29T14:39:10;3.03;;;2.10;;